Time;durP1;ratioP1;P1;durP2;ratioP2;P2;SDS_P1;SDS_P2;PMS_P1;PMS_P2;Temp;Humidity;BMP_temperature;BMP_pressure;BME280_temperature;BME280_humidity;BME280_pressure;Samples;Min_cycle;Max_cycle;Signal;HPM_P1;HPM_P2
2022/06/01 00:02:11;;;;;;;2.17;1.30;;;9.30;63.60;;;;;;4135358;28;20724;-84
2022/06/01 00:04:31;;;;;;;3.28;1.55;;;9.20;63.60;;;;;;4137799;28;20489;-84
2022/06/01 00:06:50;;;;;;;4.22;1.73;;;9.30;63.60;;;;;;4137096;28;20041;-84
2022/06/01 00:09:12;;;;;;;3.28;1.50;;;9.20;63.60;;;;;;4130771;28;20748;-84
2022/06/01 00:11:32;;;;;;;3.58;1.40;;;9.20;63.50;;;;;;4136587;28;20045;-84
2022/06/01 00:13:51;;;;;;;2.33;1.48;;;9.20;63.60;;;;;;4136219;28;20580;-84
2022/06/01 00:16:11;;;;;;;2.30;1.63;;;9.20;63.80;;;;;;4132230;28;20124;-85
2022/06/01 00:18:30;;;;;;;2.72;1.48;;;9.20;63.90;;;;;;4121613;28;20081;-86
2022/06/01 00:20:51;;;;;;;2.85;1.70;;;9.20;64.00;;;;;;4137447;28;20118;-85
2022/06/01 00:23:10;;;;;;;6.18;1.40;;;9.20;64.10;;;;;;4122242;28;20042;-84
2022/06/01 00:25:30;;;;;;;2.53;1.58;;;9.10;64.00;;;;;;4114133;28;20159;-84
2022/06/01 00:27:50;;;;;;;3.08;1.40;;;9.10;64.10;;;;;;4136237;28;20535;-85
2022/06/01 00:30:14;;;;;;;1.88;1.38;;;9.10;64.00;;;;;;4121273;28;20073;-85
2022/06/01 00:32:34;;;;;;;2.42;1.35;;;9.10;64.00;;;;;;4125640;28;20042;-86
2022/06/01 00:34:53;;;;;;;2.05;1.40;;;9.10;64.00;;;;;;4146463;28;21124;-84
2022/06/01 00:37:12;;;;;;;6.63;1.80;;;9.00;63.90;;;;;;4148658;28;20064;-85
2022/06/01 00:39:32;;;;;;;8.93;1.45;;;9.00;63.90;;;;;;4148299;28;20040;-84
2022/06/01 00:41:51;;;;;;;1.98;1.50;;;9.00;64.00;;;;;;4145638;28;20069;-84
2022/06/01 00:44:11;;;;;;;2.10;1.33;;;8.90;64.10;;;;;;4124384;28;20113;-84
2022/06/01 00:46:30;;;;;;;2.42;1.45;;;8.90;64.40;;;;;;4134830;28;20393;-83
2022/06/01 00:48:54;;;;;;;2.00;1.20;;;8.90;64.50;;;;;;4136458;28;20648;-83
2022/06/01 00:51:17;;;;;;;2.35;1.50;;;8.90;64.70;;;;;;4136232;28;20591;-84
2022/06/01 00:53:40;;;;;;;2.13;1.20;;;8.80;64.70;;;;;;4137624;28;20730;-84
2022/06/01 00:56:05;;;;;;;4.30;1.30;;;8.80;64.80;;;;;;4118316;28;20049;-83
2022/06/01 00:58:34;;;;;;;3.63;1.50;;;8.80;64.80;;;;;;4138946;28;20139;-85
2022/06/01 01:00:55;;;;;;;5.43;1.55;;;8.80;65.00;;;;;;4130798;28;20048;-86
2022/06/01 01:03:16;;;;;;;2.53;1.70;;;8.80;65.10;;;;;;4134657;28;20677;-84
2022/06/01 01:05:39;;;;;;;4.65;1.58;;;8.80;65.20;;;;;;4130665;28;20045;-85
2022/06/01 01:08:02;;;;;;;2.72;1.85;;;8.80;65.30;;;;;;4134007;28;20073;-85
2022/06/01 01:10:22;;;;;;;3.30;1.52;;;8.80;65.50;;;;;;4131929;28;20049;-84
2022/06/01 01:12:58;;;;;;;3.53;1.98;;;8.80;65.60;;;;;;4132312;28;20099;-84
2022/06/01 01:15:19;;;;;;;7.03;1.90;;;8.80;65.80;;;;;;4119020;28;20041;-84
2022/06/01 01:17:38;;;;;;;4.45;2.22;;;8.80;66.00;;;;;;4135586;28;20036;-84
2022/06/01 01:19:57;;;;;;;3.75;2.13;;;8.80;66.00;;;;;;4119370;28;20061;-85
2022/06/01 01:22:36;;;;;;;5.43;2.10;;;8.80;66.60;;;;;;4133053;28;20230;-84
2022/06/01 01:25:32;;;;;;;2.80;1.92;;;8.80;66.90;;;;;;4120905;28;20041;-84
2022/06/01 01:27:56;;;;;;;3.67;2.00;;;8.80;67.00;;;;;;4120755;28;20081;-84
2022/06/01 01:30:40;;;;;;;2.80;1.85;;;8.80;66.70;;;;;;4137910;28;20477;-84
2022/06/01 01:33:03;;;;;;;4.18;2.20;;;8.80;67.00;;;;;;4132793;28;20524;-84
2022/06/01 01:35:22;;;;;;;6.00;2.20;;;8.80;66.90;;;;;;4123636;28;20053;-84
2022/06/01 01:37:43;;;;;;;3.50;2.10;;;8.80;67.00;;;;;;4136362;28;20045;-86
2022/06/01 01:40:02;;;;;;;4.72;2.20;;;8.80;67.20;;;;;;4137491;28;20057;-83
2022/06/01 01:42:21;;;;;;;4.60;2.20;;;8.80;67.30;;;;;;4139355;28;20100;-84
2022/06/01 01:44:47;;;;;;;3.63;1.90;;;8.80;67.40;;;;;;4134605;28;20045;-85
2022/06/01 01:47:07;;;;;;;2.85;1.98;;;8.80;67.40;;;;;;4125719;28;20037;-84
2022/06/01 01:49:30;;;;;;;4.13;2.45;;;8.80;67.60;;;;;;4137936;28;20421;-85
2022/06/01 01:51:52;;;;;;;6.00;2.50;;;8.90;67.80;;;;;;4137318;28;20060;-83
2022/06/01 01:54:49;;;;;;;2.70;1.85;;;8.90;68.00;;;;;;4138510;28;20112;-83
2022/06/01 01:57:22;;;;;;;3.88;1.58;;;8.90;68.50;;;;;;4137534;28;20041;-86
2022/06/01 02:00:00;;;;;;;2.90;1.95;;;8.90;68.30;;;;;;4138310;28;20131;-84
2022/06/01 02:02:35;;;;;;;3.53;2.00;;;8.90;68.70;;;;;;4136629;28;20025;-84
2022/06/01 02:08:30;;;;;;;4.75;2.20;;;8.90;68.30;;;;;;4137983;28;20581;-83
2022/06/01 02:13:31;;;;;;;2.60;2.08;;;9.00;68.40;;;;;;4136807;28;20065;-84
2022/06/01 02:15:52;;;;;;;5.40;2.63;;;9.00;68.50;;;;;;4131063;28;20464;-85
2022/06/01 02:18:18;;;;;;;5.45;2.88;;;9.00;68.70;;;;;;4136268;28;20060;-84
2022/06/01 02:20:40;;;;;;;5.60;2.92;;;9.00;69.00;;;;;;4133655;28;20033;-85
2022/06/01 02:23:00;;;;;;;7.03;2.53;;;9.00;69.10;;;;;;4134631;28;20134;-87
2022/06/01 02:25:20;;;;;;;3.83;2.45;;;9.00;69.40;;;;;;4124822;28;20061;-86
2022/06/01 02:27:42;;;;;;;3.25;2.20;;;9.10;69.60;;;;;;4130147;28;20045;-84
2022/06/01 02:30:31;;;;;;;4.07;2.67;;;9.10;69.70;;;;;;4123318;28;20062;-83
2022/06/01 02:32:51;;;;;;;9.05;2.80;;;9.10;69.80;;;;;;4138419;28;20041;-84
2022/06/01 02:35:14;;;;;;;4.13;2.65;;;9.10;69.80;;;;;;4136921;28;20117;-85
2022/06/01 02:37:37;;;;;;;3.97;2.63;;;9.10;69.90;;;;;;4136516;28;20040;-84
2022/06/01 02:39:57;;;;;;;4.30;2.38;;;9.10;70.10;;;;;;4133112;28;20048;-84
2022/06/01 02:42:26;;;;;;;3.80;2.65;;;9.20;70.20;;;;;;4137420;28;20120;-85
2022/06/01 02:44:45;;;;;;;4.88;2.50;;;9.20;70.30;;;;;;4136410;28;20097;-85
2022/06/01 02:47:04;;;;;;;3.65;2.50;;;9.20;70.30;;;;;;4134506;28;20076;-85
2022/06/01 02:49:24;;;;;;;3.97;2.63;;;9.20;70.30;;;;;;4133523;28;20202;-84
2022/06/01 02:51:45;;;;;;;4.00;2.80;;;9.20;70.30;;;;;;4133364;28;20045;-85
2022/06/01 02:54:04;;;;;;;4.90;2.85;;;9.20;70.40;;;;;;4139007;28;20045;-84
2022/06/01 02:56:24;;;;;;;8.57;3.20;;;9.20;70.40;;;;;;4133220;28;20405;-84
2022/06/01 02:58:44;;;;;;;7.22;2.97;;;9.30;70.50;;;;;;4135074;28;20119;-86
2022/06/01 03:01:04;;;;;;;7.28;3.03;;;9.30;70.60;;;;;;4132661;28;20106;-84
2022/06/01 03:03:23;;;;;;;4.78;2.92;;;9.30;70.60;;;;;;4119927;28;20042;-84
2022/06/01 03:05:42;;;;;;;5.57;2.80;;;9.30;70.60;;;;;;4136255;28;20045;-87
2022/06/01 03:08:02;;;;;;;5.07;3.50;;;9.30;70.60;;;;;;4137404;28;20044;-85
2022/06/01 03:10:22;;;;;;;4.35;3.05;;;9.30;70.60;;;;;;4139068;28;20037;-84
2022/06/01 03:12:41;;;;;;;4.57;2.95;;;9.30;70.70;;;;;;4138450;28;20051;-85
2022/06/01 03:15:00;;;;;;;5.22;2.75;;;9.30;70.70;;;;;;4138330;28;20079;-84
2022/06/01 03:17:19;;;;;;;3.88;2.70;;;9.30;70.70;;;;;;4136290;28;20040;-84
2022/06/01 03:19:39;;;;;;;5.13;2.80;;;9.30;70.60;;;;;;4134759;28;20053;-85
2022/06/01 03:21:58;;;;;;;4.93;3.03;;;9.30;70.60;;;;;;4138239;28;20045;-84
2022/06/01 03:24:18;;;;;;;5.93;2.80;;;9.30;70.60;;;;;;4123857;28;20064;-85
2022/06/01 03:26:37;;;;;;;5.00;3.03;;;9.30;70.70;;;;;;4126575;28;20565;-86
2022/06/01 03:28:56;;;;;;;3.85;2.60;;;9.30;70.70;;;;;;4123754;28;20041;-84
2022/06/01 03:31:16;;;;;;;4.32;2.67;;;9.30;70.70;;;;;;4137007;28;20037;-84
2022/06/01 03:33:35;;;;;;;5.47;2.95;;;9.40;70.80;;;;;;4132566;28;20117;-84
2022/06/01 03:35:54;;;;;;;5.53;2.90;;;9.40;70.90;;;;;;4119619;28;20150;-84
2022/06/01 03:38:13;;;;;;;7.88;3.20;;;9.40;70.80;;;;;;4136803;28;20037;-84
2022/06/01 03:40:34;;;;;;;5.32;3.13;;;9.30;70.80;;;;;;4130555;28;20033;-85
2022/06/01 03:42:53;;;;;;;5.45;2.80;;;9.30;71.60;;;;;;4123958;28;20483;-86
2022/06/01 03:47:52;;;;;;;4.18;2.70;;;9.30;71.00;;;;;;4136315;28;21792;-85
2022/06/01 03:50:12;;;;;;;5.13;2.75;;;9.40;71.20;;;;;;4133263;28;20056;-86
2022/06/01 03:52:31;;;;;;;5.45;3.33;;;9.40;71.30;;;;;;4136237;28;20048;-86
2022/06/01 03:54:50;;;;;;;6.45;3.40;;;9.40;71.30;;;;;;4132928;28;20124;-85
2022/06/01 03:57:12;;;;;;;5.45;3.00;;;9.40;71.30;;;;;;4135901;28;20038;-85
2022/06/01 03:59:32;;;;;;;4.47;2.72;;;9.50;71.50;;;;;;4133738;28;20048;-87
2022/06/01 04:01:51;;;;;;;5.70;2.80;;;9.50;71.40;;;;;;4135198;28;20036;-86
2022/06/01 04:04:10;;;;;;;4.72;3.10;;;9.50;71.40;;;;;;4123152;28;20104;-85
2022/06/01 04:06:30;;;;;;;4.72;3.20;;;9.50;71.40;;;;;;4136920;28;20095;-85
2022/06/01 04:08:50;;;;;;;7.25;3.33;;;9.50;71.50;;;;;;4114585;28;20648;-85
2022/06/01 04:11:09;;;;;;;7.80;3.92;;;9.50;71.60;;;;;;4129673;28;20036;-84
2022/06/01 04:13:28;;;;;;;4.78;3.28;;;9.50;71.70;;;;;;4130175;28;20117;-85
2022/06/01 04:15:48;;;;;;;6.35;3.42;;;9.60;71.90;;;;;;4133546;28;20224;-84
2022/06/01 04:18:07;;;;;;;6.68;3.25;;;9.60;72.00;;;;;;4138936;28;20032;-85
2022/06/01 04:20:27;;;;;;;4.60;3.33;;;9.60;72.10;;;;;;4132536;28;20110;-84
2022/06/01 04:22:46;;;;;;;6.15;3.10;;;9.70;72.30;;;;;;4137587;28;20067;-85
2022/06/01 04:25:09;;;;;;;5.28;3.22;;;9.70;72.30;;;;;;4135167;28;20107;-84
2022/06/01 04:27:28;;;;;;;7.38;3.35;;;9.70;72.30;;;;;;4130053;28;20084;-84
2022/06/01 04:29:47;;;;;;;6.78;3.50;;;9.80;72.40;;;;;;4133756;28;20092;-83
2022/06/01 04:32:14;;;;;;;6.65;3.22;;;9.80;72.30;;;;;;4140131;28;20065;-83
2022/06/01 04:34:33;;;;;;;5.65;3.63;;;9.80;72.50;;;;;;4136394;28;20374;-85
2022/06/01 04:36:54;;;;;;;8.68;3.72;;;9.80;72.50;;;;;;4115366;28;20126;-85
2022/06/01 04:39:13;;;;;;;6.53;3.55;;;9.90;72.50;;;;;;4134365;28;20036;-85
2022/06/01 04:41:33;;;;;;;5.72;3.20;;;9.90;72.50;;;;;;4138720;28;20153;-85
2022/06/01 04:43:52;;;;;;;10.13;3.28;;;9.90;72.40;;;;;;4133575;28;20057;-85
2022/06/01 04:46:11;;;;;;;4.60;3.30;;;9.90;72.30;;;;;;4114627;28;20046;-85
2022/06/01 04:48:30;;;;;;;5.15;3.33;;;9.90;72.40;;;;;;4138730;28;20049;-85
2022/06/01 04:50:51;;;;;;;8.65;3.50;;;10.00;72.50;;;;;;4135750;28;20305;-86
2022/06/01 04:53:16;;;;;;;9.40;4.05;;;10.00;72.50;;;;;;4133529;28;20501;-85
2022/06/01 04:55:35;;;;;;;11.20;3.22;;;10.00;72.70;;;;;;4140415;28;20148;-85
2022/06/01 04:57:54;;;;;;;8.23;3.97;;;10.10;72.90;;;;;;4132546;28;20248;-85
2022/06/01 05:00:14;;;;;;;7.72;4.30;;;10.10;73.50;;;;;;4116325;28;20553;-85
2022/06/01 05:02:34;;;;;;;6.90;4.00;;;10.10;74.10;;;;;;4121189;28;20145;-86
2022/06/01 05:05:27;;;;;;;7.38;5.30;;;10.20;74.60;;;;;;4150231;28;20117;-93
2022/06/01 05:08:21;;;;;;;8.63;5.10;;;10.40;75.20;;;;;;4155468;28;20037;-93
2022/06/01 05:10:43;;;;;;;7.75;5.28;;;10.40;75.70;;;;;;4153870;28;20044;-93
2022/06/01 05:13:12;;;;;;;9.15;5.40;;;10.50;76.10;;;;;;4149985;28;20153;-93
2022/06/01 05:15:48;;;;;;;10.50;4.93;;;10.60;76.60;;;;;;4129741;28;20066;-94
2022/06/01 05:18:11;;;;;;;9.38;4.82;;;10.80;76.70;;;;;;4131604;28;20061;-94
2022/06/01 05:20:34;;;;;;;10.05;5.25;;;10.90;76.70;;;;;;4127862;28;20089;-94
2022/06/01 05:22:53;;;;;;;10.07;4.50;;;11.00;77.40;;;;;;4144977;28;20048;-92
2022/06/01 05:25:13;;;;;;;7.72;4.57;;;11.10;77.40;;;;;;4131388;28;20045;-92
2022/06/01 05:27:38;;;;;;;11.18;4.97;;;11.30;77.60;;;;;;4128842;28;20037;-93
2022/06/01 05:29:57;;;;;;;13.95;5.45;;;11.50;77.60;;;;;;4129395;28;20102;-93
2022/06/01 05:32:17;;;;;;;10.27;5.07;;;11.50;77.70;;;;;;4135400;28;20098;-94
2022/06/01 05:34:40;;;;;;;10.48;4.97;;;11.60;77.10;;;;;;4155037;28;20045;-94
2022/06/01 05:36:59;;;;;;;8.40;4.68;;;11.70;77.30;;;;;;4149626;28;20025;-95
2022/06/01 05:39:19;;;;;;;7.75;5.00;;;11.70;76.70;;;;;;4151233;28;20056;-92
2022/06/01 05:41:46;;;;;;;8.80;4.30;;;11.90;76.70;;;;;;4138829;28;20096;-92
2022/06/01 05:44:09;;;;;;;7.20;4.72;;;12.00;76.50;;;;;;4130776;28;20045;-93
2022/06/01 05:46:30;;;;;;;7.05;4.47;;;12.10;76.20;;;;;;4148950;28;20048;-92
2022/06/01 05:48:50;;;;;;;8.18;4.30;;;12.20;75.70;;;;;;4129097;28;20585;-94
2022/06/01 05:51:10;;;;;;;8.07;4.55;;;12.30;75.50;;;;;;4127911;28;20094;-94
2022/06/01 05:53:31;;;;;;;9.90;4.40;;;12.40;75.60;;;;;;4139302;28;20050;-92
2022/06/01 05:55:54;;;;;;;9.23;5.00;;;12.50;75.20;;;;;;4128896;28;20388;-93
2022/06/01 05:58:21;;;;;;;11.83;4.37;;;12.50;74.40;;;;;;4132940;28;20041;-92
2022/06/01 06:00:46;;;;;;;6.65;4.00;;;12.70;74.20;;;;;;4126002;28;20033;-91
2022/06/01 06:03:10;;;;;;;6.57;3.90;;;12.80;73.90;;;;;;4126869;28;20098;-91
2022/06/01 06:08:14;;;;;;;6.80;4.20;;;13.00;73.10;;;;;;4145036;28;20044;-94
2022/06/01 06:10:35;;;;;;;7.13;4.70;;;13.10;71.80;;;;;;4144365;28;20104;-93
2022/06/01 06:12:57;;;;;;;7.05;3.97;;;13.00;71.00;;;;;;4125637;28;20098;-92
2022/06/01 06:15:20;;;;;;;5.47;3.67;;;13.10;70.90;;;;;;4145181;28;20044;-92
2022/06/01 06:17:39;;;;;;;8.05;3.55;;;13.20;70.70;;;;;;4129087;28;20069;-92
2022/06/01 06:20:00;;;;;;;9.73;3.85;;;13.20;70.20;;;;;;4129720;28;20041;-92
2022/06/01 06:22:21;;;;;;;9.93;3.40;;;13.20;70.20;;;;;;4131708;28;20056;-92
2022/06/01 06:24:40;;;;;;;5.65;3.53;;;13.30;69.80;;;;;;4145991;28;20052;-92
2022/06/01 06:27:00;;;;;;;5.80;3.33;;;13.40;69.70;;;;;;4129649;28;20061;-94
2022/06/01 06:29:22;;;;;;;5.10;3.25;;;13.40;69.40;;;;;;4134127;28;20459;-92
2022/06/01 06:31:47;;;;;;;7.38;3.22;;;13.40;68.90;;;;;;4130043;28;20097;-91
2022/06/01 06:34:07;;;;;;;11.23;3.20;;;13.50;68.90;;;;;;4143647;28;20096;-90
2022/06/01 06:36:27;;;;;;;6.13;3.40;;;13.50;69.00;;;;;;4124486;28;20191;-93
2022/06/01 06:38:51;;;;;;;5.40;3.28;;;13.60;68.70;;;;;;4134623;28;20085;-94
2022/06/01 06:41:15;;;;;;;11.23;3.25;;;13.60;68.00;;;;;;4130084;28;20077;-93
2022/06/01 06:43:44;;;;;;;7.93;2.95;;;13.70;68.00;;;;;;4131488;28;20042;-93
2022/06/01 06:46:17;;;;;;;5.15;2.60;;;13.80;68.20;;;;;;4147242;28;20106;-93
2022/06/01 06:49:31;;;;;;;;;;;;;;;;;;;;;
2022/06/01 06:57:33;;;;;;;6.53;2.75;;;14.30;65.00;;;;;;4876470;22;22943;-88
2022/06/01 06:59:53;;;;;;;4.68;2.70;;;14.40;64.20;;;;;;4125573;28;20060;-83
2022/06/01 07:02:12;;;;;;;6.20;2.90;;;14.40;63.70;;;;;;4123325;28;20086;-85
2022/06/01 07:04:32;;;;;;;5.80;2.50;;;14.50;63.60;;;;;;4129106;28;20048;-84
2022/06/01 07:06:54;;;;;;;3.88;2.10;;;14.60;62.20;;;;;;4128401;28;20037;-86
2022/06/01 07:09:17;;;;;;;6.45;2.35;;;14.60;62.90;;;;;;4126490;28;20104;-84
2022/06/01 07:11:45;;;;;;;5.07;2.05;;;14.70;63.00;;;;;;4130026;28;20559;-83
2022/06/01 07:14:05;;;;;;;4.18;2.60;;;14.80;61.50;;;;;;4127732;28;20053;-84
2022/06/01 07:16:28;;;;;;;4.07;1.90;;;14.80;61.80;;;;;;4137542;28;20050;-86
2022/06/01 07:18:49;;;;;;;4.50;1.92;;;14.90;62.10;;;;;;4144673;28;20048;-83
2022/06/01 07:21:15;;;;;;;4.43;2.50;;;15.00;62.40;;;;;;4134882;28;20040;-84
2022/06/01 07:23:39;;;;;;;4.95;2.00;;;15.00;61.80;;;;;;4133409;28;20053;-86
2022/06/01 07:25:58;;;;;;;5.05;2.13;;;15.10;60.80;;;;;;4127463;28;20193;-86
2022/06/01 07:28:21;;;;;;;3.53;1.95;;;15.20;59.60;;;;;;4129345;28;20409;-83
2022/06/01 07:30:56;;;;;;;9.85;2.00;;;15.20;59.70;;;;;;4142897;28;20666;-84
2022/06/01 07:33:19;;;;;;;3.13;1.90;;;15.20;59.00;;;;;;4141799;28;20100;-84
2022/06/01 07:35:42;;;;;;;6.77;2.37;;;15.20;58.50;;;;;;4129995;28;20053;-87
2022/06/01 07:43:21;;;;;;;5.03;2.28;;;15.10;58.10;;;;;;4139528;28;20562;-85
2022/06/01 07:45:49;;;;;;;3.03;2.20;;;15.20;58.60;;;;;;4126117;28;20088;-85
2022/06/01 07:48:11;;;;;;;3.63;2.30;;;15.20;59.00;;;;;;4126769;28;20089;-85
2022/06/01 07:50:31;;;;;;;4.05;2.10;;;15.20;59.30;;;;;;4126856;28;20073;-87
2022/06/01 07:52:59;;;;;;;6.65;2.10;;;15.30;58.80;;;;;;4128933;28;20118;-86
2022/06/01 07:55:22;;;;;;;4.22;2.25;;;15.30;58.30;;;;;;4142691;28;20474;-86
2022/06/01 07:57:58;;;;;;;4.88;2.33;;;15.30;58.60;;;;;;4139566;28;20041;-87
2022/06/01 08:00:18;;;;;;;5.00;2.17;;;15.30;58.50;;;;;;4139844;28;20150;-86
2022/06/01 08:03:05;;;;;;;4.18;2.30;;;15.30;58.60;;;;;;4128525;28;20068;-86
2022/06/01 08:05:26;;;;;;;3.55;2.03;;;15.30;58.80;;;;;;4139145;28;21088;-86
2022/06/01 08:07:54;;;;;;;2.75;2.05;;;15.30;58.70;;;;;;4125787;28;20044;-86
2022/06/01 08:10:18;;;;;;;3.95;1.85;;;15.40;59.00;;;;;;4127705;28;20056;-85
2022/06/01 08:15:19;;;;;;;3.38;1.70;;;15.40;59.80;;;;;;4141484;28;20045;-86
2022/06/01 08:17:39;;;;;;;4.95;2.17;;;15.50;59.70;;;;;;4129950;28;20129;-84
2022/06/01 08:20:04;;;;;;;4.28;1.80;;;15.60;58.80;;;;;;4135406;28;20037;-84
2022/06/01 08:22:23;;;;;;;3.75;1.75;;;15.60;58.10;;;;;;4125059;28;20092;-85
2022/06/01 08:24:48;;;;;;;4.55;1.60;;;15.70;57.60;;;;;;4122873;28;20080;-84
2022/06/01 08:27:08;;;;;;;5.00;1.92;;;15.70;57.60;;;;;;4141350;28;20033;-84
2022/06/01 08:29:41;;;;;;;3.40;1.73;;;15.70;57.60;;;;;;4137234;28;20083;-84
2022/06/01 08:32:06;;;;;;;6.70;2.25;;;15.70;57.80;;;;;;4128224;28;20045;-87
2022/06/01 08:34:32;;;;;;;5.30;2.58;;;15.80;57.40;;;;;;4124185;28;20052;-84
2022/06/01 08:36:55;;;;;;;4.68;2.10;;;15.70;57.00;;;;;;4136563;28;20034;-87
2022/06/01 08:39:16;;;;;;;3.00;2.03;;;15.70;57.30;;;;;;4140305;28;20033;-83
2022/06/01 08:41:46;;;;;;;4.80;2.30;;;15.70;57.60;;;;;;4121830;28;20049;-86
2022/06/01 08:44:22;;;;;;;5.68;2.17;;;15.60;57.70;;;;;;4140550;28;20505;-83
2022/06/01 08:46:51;;;;;;;5.43;1.75;;;15.60;57.70;;;;;;4132051;28;20034;-84
2022/06/01 08:49:26;;;;;;;4.43;1.85;;;15.60;57.80;;;;;;4124945;28;20386;-84
2022/06/01 08:51:46;;;;;;;5.60;2.35;;;15.60;57.80;;;;;;4135420;28;20031;-85
2022/06/01 08:53:54;;;;;;;2.83;1.50;;;15.60;57.60;;;;;;4126806;28;20141;-86
2022/06/01 08:56:23;;;;;;;7.68;2.13;;;15.60;57.30;;;;;;4133566;28;20049;-84
2022/06/01 08:59:13;;;;;;;4.95;2.00;;;15.60;56.90;;;;;;4131149;28;20029;-87
2022/06/01 09:01:28;;;;;;;3.38;2.13;;;15.50;55.30;;;;;;4080754;29;20054;-86
2022/06/01 09:03:44;;;;;;;3.15;1.65;;;15.60;55.60;;;;;;4132064;28;20470;-84
2022/06/01 09:05:57;;;;;;;2.83;1.70;;;15.50;55.10;;;;;;4131392;28;20022;-85
2022/06/01 09:08:16;;;;;;;3.67;1.60;;;15.50;55.30;;;;;;4146915;28;20122;-86
2022/06/01 09:10:56;;;;;;;6.35;2.58;;;15.50;55.20;;;;;;4144547;28;20032;-84
2022/06/01 09:13:03;;;;;;;2.90;1.55;;;15.40;54.40;;;;;;4151697;28;20037;-83
2022/06/01 09:15:23;;;;;;;2.78;1.52;;;15.50;55.20;;;;;;4119963;28;20035;-85
2022/06/01 09:17:26;;;;;;;2.67;1.60;;;15.50;55.60;;;;;;4129967;28;20075;-84
2022/06/01 09:22:37;;;;;;;4.05;1.70;;;15.50;56.00;;;;;;4128571;28;20034;-85
2022/06/01 09:24:36;;;;;;;4.13;1.40;;;15.50;55.70;;;;;;4128410;28;20463;-87
2022/06/01 09:26:58;;;;;;;3.55;1.45;;;15.50;55.40;;;;;;4127323;28;20054;-85
2022/06/01 09:29:02;;;;;;;3.10;1.42;;;15.50;55.10;;;;;;4147084;28;20022;-87
2022/06/01 09:31:20;;;;;;;2.45;1.40;;;15.60;55.50;;;;;;4132211;28;20050;-85
2022/06/01 09:33:37;;;;;;;3.38;1.42;;;15.60;55.70;;;;;;4148126;28;20025;-86
2022/06/01 09:35:57;;;;;;;2.25;1.30;;;15.60;55.50;;;;;;4123204;28;20039;-84
2022/06/01 09:38:03;;;;;;;6.03;1.33;;;15.60;54.00;;;;;;4119264;28;20023;-86
2022/06/01 09:40:20;;;;;;;1.60;1.13;;;15.60;53.10;;;;;;4136014;28;20571;-87
2022/06/01 09:42:28;;;;;;;2.30;1.00;;;15.60;52.60;;;;;;4130413;28;20049;-86
2022/06/01 09:44:33;;;;;;;3.10;1.08;;;15.60;52.80;;;;;;4149646;28;20053;-84
2022/06/01 09:47:00;;;;;;;3.08;1.02;;;15.60;51.90;;;;;;4132392;28;20041;-84
2022/06/01 09:49:32;;;;;;;1.92;0.75;;;15.50;51.20;;;;;;4134057;28;20036;-85
2022/06/01 09:51:45;;;;;;;1.20;0.93;;;15.50;51.30;;;;;;4120421;28;20090;-85
2022/06/01 09:54:07;;;;;;;1.40;1.10;;;15.50;52.20;;;;;;4117158;28;20029;-86
2022/06/01 09:56:08;;;;;;;1.15;0.90;;;15.40;52.30;;;;;;4140508;28;20035;-84
2022/06/01 10:06:05;;;;;;;2.15;1.20;;;15.40;52.80;;;;;;4134590;28;20041;-85
2022/06/01 10:08:13;;;;;;;5.63;1.60;;;15.40;53.90;;;;;;4134285;28;20076;-83
2022/06/01 10:10:52;;;;;;;3.60;1.33;;;15.30;54.40;;;;;;4132772;28;20098;-84
2022/06/01 10:13:01;;;;;;;2.20;1.30;;;15.30;54.80;;;;;;4136679;28;20115;-84
2022/06/01 10:18:30;;;;;;;3.50;1.30;;;15.40;54.90;;;;;;4094789;28;20118;-84
2022/06/01 10:21:25;;;;;;;2.03;1.10;;;15.40;55.30;;;;;;4131277;28;20034;-84
2022/06/01 10:23:36;;;;;;;3.25;1.20;;;15.40;55.50;;;;;;4132584;28;20038;-83
2022/06/01 10:25:51;;;;;;;1.98;1.08;;;15.40;55.60;;;;;;4149678;28;20030;-84
2022/06/01 10:27:58;;;;;;;5.40;1.10;;;15.40;55.70;;;;;;4132424;28;20676;-84
2022/06/01 10:30:19;;;;;;;;;;;15.50;55.80;;;;;;4115788;28;20066;-84
2022/06/01 10:32:28;;;;;;;2.28;1.13;;;15.50;55.70;;;;;;4149039;28;20955;-85
2022/06/01 10:34:53;;;;;;;2.42;1.38;;;15.50;56.30;;;;;;4134807;28;20026;-85
2022/06/01 10:37:23;;;;;;;2.83;1.10;;;15.60;56.80;;;;;;4122015;28;20412;-85
2022/06/01 10:39:49;;;;;;;3.97;1.10;;;15.60;57.20;;;;;;4122309;28;20039;-83
2022/06/01 10:42:17;;;;;;;1.95;0.98;;;15.70;56.60;;;;;;4153195;28;20030;-85
2022/06/01 10:44:27;;;;;;;1.25;0.70;;;15.80;55.50;;;;;;4146367;28;20100;-86
2022/06/01 10:46:28;;;;;;;0.77;0.70;;;15.90;53.60;;;;;;4138283;28;20046;-85
2022/06/01 10:48:45;;;;;;;1.02;0.57;;;15.90;52.20;;;;;;4133822;28;21311;-82
2022/06/01 10:51:04;;;;;;;0.98;0.60;;;16.00;52.70;;;;;;4143865;28;20069;-86
2022/06/01 10:56:16;;;;;;;1.30;0.60;;;16.10;51.40;;;;;;4097251;28;20049;-85
2022/06/01 10:58:29;;;;;;;2.03;1.00;;;16.20;51.70;;;;;;4123471;28;20049;-86
2022/06/01 11:01:04;;;;;;;2.78;0.80;;;16.20;50.40;;;;;;4134718;28;20045;-87
2022/06/01 11:03:42;;;;;;;1.52;0.70;;;16.30;48.80;;;;;;4138818;28;20034;-85
2022/06/01 11:05:51;;;;;;;2.10;0.70;;;16.10;47.00;;;;;;4116111;28;20031;-86
2022/06/01 11:11:46;;;;;;;1.95;0.90;;;16.20;47.30;;;;;;4139018;28;20061;-85
2022/06/01 11:14:09;;;;;;;2.00;0.77;;;16.20;49.00;;;;;;4120011;28;20138;-84
2022/06/01 11:16:22;;;;;;;2.70;0.70;;;16.20;49.30;;;;;;4113989;28;20026;-85
2022/06/01 11:18:50;;;;;;;3.42;1.60;;;16.20;49.10;;;;;;4116802;28;20868;-86
2022/06/01 11:21:24;;;;;;;0.65;0.52;;;16.20;49.10;;;;;;4112644;28;20078;-87
2022/06/01 11:23:40;;;;;;;1.13;0.65;;;16.20;48.20;;;;;;4130674;28;20030;-88
2022/06/01 11:26:03;;;;;;;2.97;0.77;;;16.20;49.00;;;;;;4117370;28;20055;-84
2022/06/01 11:28:34;;;;;;;2.72;0.80;;;16.20;48.80;;;;;;4145176;28;20030;-83
2022/06/01 11:31:00;;;;;;;1.33;0.60;;;16.10;49.60;;;;;;4129176;28;20030;-83
2022/06/01 11:33:15;;;;;;;2.03;0.85;;;16.00;50.80;;;;;;4128371;28;20038;-83
2022/06/01 11:35:19;;;;;;;7.30;0.90;;;16.00;51.20;;;;;;4139270;28;20037;-81
2022/06/01 11:37:24;;;;;;;;;;;15.90;50.30;;;;;;4116685;28;20045;-83
2022/06/01 11:39:52;;;;;;;2.83;1.02;;;15.90;50.00;;;;;;4128627;28;19918;-82
2022/06/01 11:42:33;;;;;;;2.00;0.77;;;15.80;51.20;;;;;;4146357;28;20018;-83
2022/06/01 11:44:37;;;;;;;1.30;0.90;;;15.70;52.40;;;;;;4128775;28;20053;-81
2022/06/01 11:46:52;;;;;;;3.15;0.80;;;15.70;52.80;;;;;;4134501;28;20034;-84
2022/06/01 11:48:58;;;;;;;3.13;1.00;;;15.70;53.50;;;;;;4118941;28;20046;-83
2022/06/01 11:51:15;;;;;;;3.05;0.85;;;15.70;54.30;;;;;;4123644;28;20019;-81
2022/06/01 11:54:14;;;;;;;;;;;;;;;;;;;;;
2022/06/01 12:00:42;;;;;;;3.08;1.15;;;15.60;54.80;;;;;;4095534;28;20035;-81
2022/06/01 12:03:32;;;;;;;3.40;1.20;;;15.60;52.60;;;;;;4090200;28;20035;-84
2022/06/01 12:05:40;;;;;;;2.40;1.10;;;15.60;53.60;;;;;;4094085;28;20046;-85
2022/06/01 12:08:04;;;;;;;4.00;1.05;;;15.60;53.70;;;;;;4117089;28;20023;-84
2022/06/01 12:10:25;;;;;;;3.50;1.05;;;15.50;52.60;;;;;;4131236;28;20038;-83
2022/06/01 12:16:23;;;;;;;1.95;1.10;;;15.60;53.70;;;;;;4041818;29;21422;-83
2022/06/01 12:18:29;;;;;;;2.08;1.02;;;15.60;54.40;;;;;;4054915;29;20032;-82
2022/06/01 12:20:33;;;;;;;1.52;1.00;;;15.60;54.80;;;;;;4076575;28;20043;-83
2022/06/01 12:29:53;;;;;;;2.95;1.27;;;15.80;54.90;;;;;;4151121;28;20069;-84
2022/06/01 12:31:57;;;;;;;2.03;1.20;;;15.80;55.30;;;;;;4121993;28;20037;-83
2022/06/01 12:34:07;;;;;;;2.95;1.77;;;15.90;55.20;;;;;;4127368;28;20289;-82
2022/06/01 12:36:10;;;;;;;3.00;1.33;;;15.90;55.10;;;;;;4131808;28;20033;-82
2022/06/01 12:38:20;;;;;;;4.28;1.10;;;16.00;55.20;;;;;;4128323;28;20027;-82
2022/06/01 12:40:24;;;;;;;1.48;1.02;;;16.10;55.30;;;;;;4137692;28;20061;-82
2022/06/01 12:42:47;;;;;;;1.80;1.13;;;16.20;55.30;;;;;;4130113;28;20029;-83
2022/06/01 12:44:50;;;;;;;2.22;0.88;;;16.30;54.40;;;;;;4128122;28;20035;-84
2022/06/01 12:46:58;;;;;;;1.85;1.20;;;16.40;53.90;;;;;;4110720;28;20047;-84
2022/06/01 12:49:20;;;;;;;2.33;1.20;;;16.50;53.20;;;;;;4114469;28;20515;-86
2022/06/01 12:51:24;;;;;;;3.95;1.30;;;16.60;52.80;;;;;;4111026;28;20492;-85
2022/06/01 12:53:44;;;;;;;2.20;1.05;;;16.70;53.00;;;;;;4115947;28;20102;-83
2022/06/01 12:55:46;;;;;;;2.22;1.20;;;16.70;53.10;;;;;;4142813;28;20038;-85
2022/06/01 12:57:55;;;;;;;2.28;1.00;;;16.80;52.80;;;;;;4126436;28;20084;-83
2022/06/01 13:00:19;;;;;;;3.03;1.08;;;16.90;51.50;;;;;;4107834;28;20338;-83
2022/06/01 13:02:22;;;;;;;2.47;1.17;;;16.90;50.80;;;;;;4129960;28;20117;-83
2022/06/01 13:04:27;;;;;;;6.80;1.27;;;17.00;51.40;;;;;;4108048;28;20334;-82
2022/06/01 13:06:32;;;;;;;2.00;1.15;;;17.10;51.50;;;;;;4144732;28;20025;-84
2022/06/01 13:08:37;;;;;;;3.03;1.65;;;17.20;51.40;;;;;;4112659;28;20037;-83
2022/06/01 13:10:38;;;;;;;2.35;1.13;;;17.20;50.80;;;;;;4122664;28;21105;-87
2022/06/01 13:12:39;;;;;;;3.67;1.23;;;17.20;50.80;;;;;;4143528;28;20029;-84
2022/06/01 13:14:40;;;;;;;1.55;1.10;;;17.30;50.40;;;;;;4127990;28;20034;-83
2022/06/01 13:16:45;;;;;;;1.60;1.02;;;17.40;50.20;;;;;;4132844;28;20053;-83
2022/06/01 13:18:46;;;;;;;1.58;1.20;;;17.40;49.90;;;;;;4111155;28;21915;-83
2022/06/01 13:21:02;;;;;;;6.43;1.33;;;17.50;49.90;;;;;;4141043;28;20173;-86